Time;durP1;ratioP1;P1;durP2;ratioP2;P2;SDS_P1;SDS_P2;PMS_P1;PMS_P2;Temp;Humidity;BMP_temperature;BMP_pressure;BME280_temperature;BME280_humidity;BME280_pressure;Samples;Min_cycle;Max_cycle;Signal;HPM_P1;HPM_P2
2023/10/11 00:00:44;;;;;;;0.30;0.30;;;;;;;14.67;68.93;97721.59;5044595;28;20041;-75
2023/10/11 00:03:16;;;;;;;0.10;0.10;;;;;;;14.64;68.93;97722.03;5043176;28;21334;-75
2023/10/11 00:05:46;;;;;;;0.50;0.50;;;;;;;14.63;69.08;97725.78;5043553;28;20041;-75
2023/10/11 00:08:16;;;;;;;0.45;0.45;;;;;;;14.66;69.48;97722.63;5053912;28;20119;-75
2023/10/11 00:10:53;;;;;;;0.45;0.45;;;;;;;14.64;68.50;97722.03;5052078;28;20041;-75
2023/10/11 00:13:21;;;;;;;0.38;0.38;;;;;;;14.65;68.72;97726.34;5044715;28;20045;-76
2023/10/11 00:15:50;;;;;;;0.90;0.50;;;;;;;14.61;68.81;97709.88;5042539;28;20045;-76
2023/10/11 00:18:19;;;;;;;0.40;0.40;;;;;;;14.60;68.90;97715.47;5040790;28;20041;-75
2023/10/11 00:20:52;;;;;;;0.50;0.50;;;;;;;14.63;68.88;97715.03;5040579;28;20049;-76
2023/10/11 00:23:22;;;;;;;0.43;0.43;;;;;;;14.59;68.35;97711.94;5049346;28;20061;-75
2023/10/11 00:25:53;;;;;;;0.40;0.40;;;;;;;14.57;68.05;97713.19;5041223;28;20052;-75
2023/10/11 00:28:24;;;;;;;0.52;0.52;;;;;;;14.53;68.47;97712.81;5040236;28;20476;-75
2023/10/11 00:30:52;;;;;;;0.40;0.40;;;;;;;14.52;68.46;97707.66;5053630;28;20049;-75
2023/10/11 00:33:21;;;;;;;0.50;0.50;;;;;;;14.53;68.54;97710.13;5049168;28;20127;-76
2023/10/11 00:36:05;;;;;;;0.40;0.40;;;;;;;14.47;68.50;97702.09;5049188;28;20060;-75
2023/10/11 00:38:42;;;;;;;0.50;0.50;;;;;;;14.50;68.43;97697.13;5051414;28;20045;-75
2023/10/11 00:41:17;;;;;;;;;;;;;;;14.52;68.29;97691.56;5051272;28;20512;-75
2023/10/11 00:43:51;;;;;;;0.55;0.55;;;;;;;14.50;68.60;97694.44;5043855;28;19921;-76
2023/10/11 00:46:20;;;;;;;0.40;0.40;;;;;;;14.48;68.58;97693.00;5049259;28;20037;-75
2023/10/11 00:48:55;;;;;;;0.40;0.40;;;;;;;14.44;68.78;97689.94;5051916;28;20394;-75
2023/10/11 00:51:23;;;;;;;0.43;0.43;;;;;;;14.42;69.00;97686.66;5049418;28;20048;-75
2023/10/11 00:53:52;;;;;;;0.52;0.52;;;;;;;14.45;69.08;97685.38;5055413;28;20052;-75
2023/10/11 00:56:22;;;;;;;0.40;0.40;;;;;;;14.44;69.11;97687.25;5056876;28;20064;-75
2023/10/11 00:58:51;;;;;;;0.45;0.45;;;;;;;14.41;69.18;97686.88;5054741;28;20053;-75
2023/10/11 01:01:21;;;;;;;0.40;0.40;;;;;;;14.42;69.28;97689.34;5055634;28;20060;-76
2023/10/11 01:03:49;;;;;;;0.43;0.43;;;;;;;14.40;69.41;97682.53;5066237;28;20060;-76
2023/10/11 01:06:18;;;;;;;0.55;0.55;;;;;;;14.42;69.24;97680.47;5059798;28;20049;-76
2023/10/11 01:08:48;;;;;;;0.40;0.40;;;;;;;14.48;69.28;97679.59;5050032;28;20132;-76
2023/10/11 01:11:16;;;;;;;0.32;0.32;;;;;;;14.39;69.63;97683.53;5046235;28;20037;-76
2023/10/11 01:13:50;;;;;;;0.47;0.47;;;;;;;14.28;69.99;97680.50;5045282;28;20136;-76
2023/10/11 01:16:20;;;;;;;0.22;0.22;;;;;;;14.27;70.27;97680.72;5041035;28;20456;-76
2023/10/11 01:18:48;;;;;;;0.40;0.40;;;;;;;14.25;70.44;97672.88;5041006;28;20061;-76
2023/10/11 01:21:18;;;;;;;0.43;0.43;;;;;;;14.25;70.36;97680.94;5040808;28;20044;-76
2023/10/11 01:23:46;;;;;;;0.30;0.30;;;;;;;14.23;70.45;97683.00;5045016;28;20053;-76
2023/10/11 01:26:15;;;;;;;0.43;0.43;;;;;;;14.27;70.68;97680.72;5048522;28;20040;-75
2023/10/11 01:28:44;;;;;;;0.30;0.30;;;;;;;14.12;71.02;97675.63;5046262;28;20041;-75
2023/10/11 01:31:16;;;;;;;0.43;0.43;;;;;;;14.16;70.77;97678.72;5046688;28;20124;-77
2023/10/11 01:33:46;;;;;;;;;;;;;;;14.09;71.13;97680.63;5048626;28;20112;-76
2023/10/11 01:36:17;;;;;;;0.55;0.55;;;;;;;14.11;71.08;97675.88;5039780;28;19929;-77
2023/10/11 01:38:47;;;;;;;0.50;0.50;;;;;;;14.15;71.29;97680.56;5040455;28;20132;-76
2023/10/11 01:41:16;;;;;;;0.30;0.30;;;;;;;14.12;71.01;97675.63;5042198;28;20527;-76
2023/10/11 01:43:46;;;;;;;0.38;0.38;;;;;;;14.12;71.24;97678.31;5047339;28;20045;-76
2023/10/11 01:46:16;;;;;;;0.30;0.30;;;;;;;14.15;70.80;97685.13;5049373;28;20459;-78
2023/10/11 01:48:45;;;;;;;0.43;0.43;;;;;;;14.13;70.69;97677.28;5047993;28;20052;-76
2023/10/11 01:51:15;;;;;;;0.32;0.32;;;;;;;14.15;70.53;97671.69;5043445;28;20222;-76
2023/10/11 01:53:44;;;;;;;0.40;0.40;;;;;;;14.13;70.67;97674.59;5050855;28;20045;-76
2023/10/11 01:56:13;;;;;;;0.38;0.38;;;;;;;14.12;70.95;97672.94;5049612;28;20153;-76
2023/10/11 01:58:42;;;;;;;0.40;0.40;;;;;;;14.16;70.76;97668.81;5049754;28;20135;-76
2023/10/11 02:01:21;;;;;;;0.55;0.55;;;;;;;14.16;70.63;97666.13;5054175;28;20072;-75
2023/10/11 02:03:53;;;;;;;0.43;0.43;;;;;;;14.16;70.65;97671.47;5054788;28;20504;-75
2023/10/11 02:06:21;;;;;;;0.52;0.52;;;;;;;14.14;71.34;97670.88;5052498;28;20133;-76
2023/10/11 02:08:50;;;;;;;0.40;0.40;;;;;;;14.21;70.62;97665.50;5059882;28;20046;-75
2023/10/11 02:11:23;;;;;;;0.32;0.32;;;;;;;14.19;70.55;97664.88;5053901;28;20114;-76
2023/10/11 02:13:51;;;;;;;0.35;0.35;;;;;;;14.10;71.00;97668.84;5045796;28;20520;-75
2023/10/11 02:16:19;;;;;;;0.60;0.60;;;;;;;14.12;71.33;97667.56;5049012;28;20155;-76
2023/10/11 02:18:51;;;;;;;0.47;0.47;;;;;;;14.15;71.34;97675.22;5043868;28;20072;-75
2023/10/11 02:21:19;;;;;;;0.68;0.68;;;;;;;14.20;71.39;97671.88;5042168;28;20484;-76
2023/10/11 02:23:48;;;;;;;0.47;0.47;;;;;;;14.24;71.55;97668.53;5044221;28;20107;-76
2023/10/11 02:26:16;;;;;;;0.30;0.30;;;;;;;14.22;70.72;97680.56;5047869;28;20477;-76
2023/10/11 02:28:46;;;;;;;0.40;0.40;;;;;;;14.27;71.04;97675.34;5040073;28;20107;-76
2023/10/11 02:31:19;;;;;;;0.47;0.47;;;;;;;14.33;70.85;97677.97;5049724;28;20131;-75
2023/10/11 02:33:51;;;;;;;0.55;0.55;;;;;;;14.24;70.53;97673.91;5042270;28;20038;-77
2023/10/11 02:36:20;;;;;;;0.43;0.43;;;;;;;14.31;71.00;97671.19;5044280;28;20100;-76
2023/10/11 02:38:50;;;;;;;0.45;0.45;;;;;;;14.36;71.52;97686.66;5052817;28;20496;-76
2023/10/11 02:41:24;;;;;;;0.47;0.47;;;;;;;14.42;71.21;97678.59;5050675;28;20053;-77
2023/10/11 02:43:54;;;;;;;0.43;0.43;;;;;;;14.42;70.66;97667.84;5042779;28;20037;-76
2023/10/11 02:46:23;;;;;;;0.40;0.40;;;;;;;14.38;70.57;97668.47;5050641;28;20048;-76
2023/10/11 02:49:04;;;;;;;0.50;0.50;;;;;;;14.24;71.28;97665.03;5050246;28;20095;-76
2023/10/11 02:51:33;;;;;;;0.68;0.68;;;;;;;14.04;71.94;97657.09;5044317;28;20034;-76
2023/10/11 02:54:03;;;;;;;0.52;0.52;;;;;;;14.08;71.86;97662.88;5043575;28;20119;-77
2023/10/11 02:56:39;;;;;;;0.50;0.50;;;;;;;14.15;71.25;97661.78;5052789;28;20049;-77
2023/10/11 02:59:08;;;;;;;0.55;0.55;;;;;;;14.15;71.45;97652.91;5046448;28;20056;-77
2023/10/11 03:01:39;;;;;;;0.40;0.40;;;;;;;14.12;71.38;97648.78;5046636;28;20049;-76
2023/10/11 03:04:08;;;;;;;0.57;0.57;;;;;;;14.13;71.51;97654.97;5047973;28;20082;-76
2023/10/11 03:06:36;;;;;;;0.40;0.40;;;;;;;14.11;71.42;97646.34;5051218;28;20111;-78
2023/10/11 03:09:11;;;;;;;0.45;0.45;;;;;;;14.13;71.36;97647.75;5055296;28;20083;-78
2023/10/11 03:11:45;;;;;;;0.40;0.40;;;;;;;14.13;71.31;97650.44;5055364;28;20085;-79
2023/10/11 03:14:14;;;;;;;0.50;0.50;;;;;;;14.17;71.05;97648.16;5048744;28;20091;-76
2023/10/11 03:16:42;;;;;;;0.50;0.50;;;;;;;14.19;71.08;97649.59;5064318;28;20048;-75
2023/10/11 03:19:11;;;;;;;0.52;0.52;;;;;;;14.21;71.38;97638.63;5054018;28;20075;-76
2023/10/11 03:21:38;;;;;;;0.30;0.30;;;;;;;14.25;71.57;97643.34;5052491;28;20432;-75
2023/10/11 03:24:08;;;;;;;0.43;0.43;;;;;;;14.25;71.13;97645.19;5052834;28;20045;-76
2023/10/11 03:26:38;;;;;;;0.50;0.50;;;;;;;14.21;70.96;97644.00;5051812;28;20037;-75
2023/10/11 03:29:06;;;;;;;0.52;0.52;;;;;;;14.24;71.10;97648.91;5050701;28;20137;-75
2023/10/11 03:31:40;;;;;;;0.38;0.38;;;;;;;14.26;71.03;97641.47;5045850;28;20377;-76
2023/10/11 03:34:10;;;;;;;0.43;0.43;;;;;;;14.26;71.22;97645.00;5051548;28;20055;-76
2023/10/11 03:36:48;;;;;;;0.40;0.40;;;;;;;14.27;70.91;97641.28;5052545;28;20090;-76
2023/10/11 03:39:26;;;;;;;0.40;0.40;;;;;;;14.24;70.92;97632.81;5048947;28;20041;-76
2023/10/11 03:42:05;;;;;;;0.60;0.60;;;;;;;14.21;70.90;97630.59;5051238;28;20070;-76
2023/10/11 03:44:36;;;;;;;0.45;0.45;;;;;;;14.21;71.29;97623.34;5053439;28;20048;-76
2023/10/11 03:47:07;;;;;;;0.60;0.60;;;;;;;14.30;70.93;97615.84;5053628;28;20079;-76
2023/10/11 03:49:49;;;;;;;0.65;0.40;;;;;;;14.27;71.00;97617.09;5054501;28;20607;-77
2023/10/11 03:52:20;;;;;;;0.40;0.40;;;;;;;14.23;71.19;97610.50;5064605;28;20104;-75
2023/10/11 03:54:52;;;;;;;0.30;0.30;;;;;;;14.21;71.40;97606.41;5062327;28;20120;-75
2023/10/11 03:57:20;;;;;;;0.52;0.52;;;;;;;14.21;71.10;97614.47;5064638;28;20048;-75
2023/10/11 03:59:51;;;;;;;0.60;0.60;;;;;;;14.20;71.06;97619.03;5055544;28;20448;-75
2023/10/11 04:02:23;;;;;;;0.50;0.50;;;;;;;14.18;71.02;97618.41;5055167;28;20049;-77
2023/10/11 04:04:50;;;;;;;0.52;0.52;;;;;;;14.24;70.89;97614.84;5048855;28;20524;-77
2023/10/11 04:07:22;;;;;;;0.40;0.40;;;;;;;14.26;70.99;97615.44;5053692;28;20071;-76
2023/10/11 04:09:50;;;;;;;0.30;0.30;;;;;;;14.27;70.85;97602.84;5045695;28;20547;-77
2023/10/11 04:12:23;;;;;;;0.50;0.50;;;;;;;14.27;70.95;97611.72;5053154;28;20049;-77
2023/10/11 04:14:51;;;;;;;0.47;0.47;;;;;;;14.23;71.09;97617.75;5046854;28;20076;-76
2023/10/11 04:17:31;;;;;;;0.32;0.32;;;;;;;14.30;70.95;97622.06;5052533;28;20111;-76
2023/10/11 04:20:17;;;;;;;0.38;0.38;;;;;;;14.29;71.06;97619.56;5052896;28;20052;-76
2023/10/11 04:22:52;;;;;;;1.00;1.00;;;;;;;14.31;71.08;97621.00;5047442;28;20057;-75
2023/10/11 04:25:22;;;;;;;0.40;0.40;;;;;;;14.32;70.79;97619.97;5048516;28;20041;-75
2023/10/11 04:27:58;;;;;;;0.30;0.30;;;;;;;14.37;70.73;97618.47;5040722;28;20037;-76
2023/10/11 04:30:26;;;;;;;0.43;0.43;;;;;;;14.36;70.76;97616.84;5046753;28;20045;-76
2023/10/11 04:32:57;;;;;;;0.45;0.45;;;;;;;14.37;70.97;97619.31;5051758;28;20045;-74
2023/10/11 04:35:36;;;;;;;0.50;0.50;;;;;;;14.34;70.63;97609.00;5046478;28;20103;-75
2023/10/11 04:38:04;;;;;;;0.15;0.15;;;;;;;14.30;70.71;97608.63;5044344;28;20416;-76
2023/10/11 04:40:41;;;;;;;0.60;0.60;;;;;;;14.33;71.27;97607.34;5048310;28;20037;-76
2023/10/11 04:43:20;;;;;;;0.68;0.68;;;;;;;14.38;71.27;97612.06;5050785;28;20428;-76
2023/10/11 04:45:50;;;;;;;0.50;0.50;;;;;;;14.38;70.98;97620.13;5048328;28;20045;-74
2023/10/11 04:48:33;;;;;;;0.50;0.50;;;;;;;14.21;71.00;97622.53;5046420;28;20044;-73
2023/10/11 04:51:21;;;;;;;0.52;0.52;;;;;;;14.21;71.16;97617.16;5039677;28;20048;-73
2023/10/11 04:53:58;;;;;;;0.40;0.40;;;;;;;14.28;71.11;97624.13;5045261;28;20067;-73
2023/10/11 04:59:17;;;;;;;0.40;0.40;;;;;;;14.27;71.09;97610.91;5046733;28;20545;-74
2023/10/11 05:01:58;;;;;;;0.47;0.47;;;;;;;14.24;71.17;97614.84;5047901;28;20044;-73
2023/10/11 05:04:28;;;;;;;0.50;0.50;;;;;;;14.25;71.32;97623.72;5049120;28;20058;-73
2023/10/11 05:06:57;;;;;;;0.35;0.35;;;;;;;14.24;71.35;97609.47;5049798;28;20041;-73
2023/10/11 05:09:38;;;;;;;0.50;0.50;;;;;;;14.20;71.10;97610.16;5049844;28;20044;-73
2023/10/11 05:12:10;;;;;;;0.50;0.50;;;;;;;14.19;71.22;97603.94;5038911;28;20099;-73
2023/10/11 05:14:56;;;;;;;0.60;0.60;;;;;;;14.24;70.81;97597.91;5040817;28;20029;-73
2023/10/11 05:17:33;;;;;;;0.38;0.38;;;;;;;14.27;70.38;97594.81;5044362;28;20126;-73
2023/10/11 05:22:52;;;;;;;0.30;0.30;;;;;;;14.38;69.91;97598.66;5047922;28;20471;-74
2023/10/11 05:25:40;;;;;;;0.60;0.60;;;;;;;14.36;70.23;97598.03;5041012;28;20049;-74
2023/10/11 05:28:08;;;;;;;0.52;0.52;;;;;;;14.34;70.56;97604.44;5046895;28;20033;-74
2023/10/11 05:30:35;;;;;;;0.40;0.40;;;;;;;14.32;70.71;97603.88;5050604;28;20044;-74
2023/10/11 05:33:41;;;;;;;0.73;0.73;;;;;;;14.33;70.89;97608.16;5036416;28;20120;-74
2023/10/11 05:36:36;;;;;;;0.65;0.65;;;;;;;14.27;70.67;97602.84;5039878;28;20045;-75
2023/10/11 05:52:55;;;;;;;0.40;0.40;;;;;;;14.29;70.33;97600.78;5041881;28;20041;-74
2023/10/11 05:55:23;;;;;;;0.45;0.45;;;;;;;14.29;70.35;97593.56;5051292;28;20049;-74
2023/10/11 05:57:51;;;;;;;0.30;0.30;;;;;;;14.26;70.16;97598.53;5048936;28;20061;-73
2023/10/11 06:00:25;;;;;;;0.50;0.50;;;;;;;14.30;70.01;97599.75;5041940;28;20445;-72
2023/10/11 06:02:57;;;;;;;0.22;0.22;;;;;;;14.29;70.06;97601.59;5035931;28;20396;-73
2023/10/11 06:05:25;;;;;;;0.50;0.50;;;;;;;14.27;70.15;97595.63;5048588;28;20835;-73
2023/10/11 06:08:04;;;;;;;0.40;0.40;;;;;;;14.26;70.23;97595.84;5054303;28;20103;-72
2023/10/11 06:10:41;;;;;;;0.30;0.30;;;;;;;14.26;69.97;97599.34;5052740;28;20066;-73
2023/10/11 06:13:13;;;;;;;0.52;0.52;;;;;;;14.26;70.32;97602.03;5052902;28;20037;-73
2023/10/11 06:15:58;;;;;;;0.38;0.38;;;;;;;14.23;70.65;97605.13;5050408;28;20125;-73
2023/10/11 06:18:43;;;;;;;0.43;0.43;;;;;;;14.22;70.74;97602.69;5045995;28;20045;-73
2023/10/11 06:21:30;;;;;;;0.60;0.60;;;;;;;14.21;70.78;97599.19;5043631;28;20045;-73
2023/10/11 06:24:03;;;;;;;0.50;0.50;;;;;;;14.23;70.47;97597.09;5053444;28;20136;-73
2023/10/11 06:29:16;;;;;;;0.52;0.52;;;;;;;14.25;70.61;97595.00;5035963;28;20045;-74
2023/10/11 06:31:44;;;;;;;0.40;0.40;;;;;;;14.30;70.77;97597.88;5048454;28;20041;-73
2023/10/11 06:34:23;;;;;;;0.63;0.63;;;;;;;14.29;70.74;97601.59;5044088;28;20043;-74
2023/10/11 06:36:53;;;;;;;0.55;0.55;;;;;;;14.30;70.70;97597.88;5049505;28;20493;-73
2023/10/11 06:40:07;;;;;;;0.57;0.57;;;;;;;14.29;70.87;97592.72;5046885;28;20475;-73
2023/10/11 06:42:23;;;;;;;0.40;0.40;;;;;;;14.25;70.95;97596.88;5042471;28;20140;-73
2023/10/11 06:44:57;;;;;;;0.60;0.60;;;;;;;14.24;71.00;97598.72;5042468;28;20037;-73
2023/10/11 06:47:26;;;;;;;0.50;0.50;;;;;;;14.27;71.09;97592.13;5045319;28;20072;-73
2023/10/11 06:49:55;;;;;;;0.45;0.45;;;;;;;14.33;70.80;97597.44;5047151;28;20049;-73
2023/10/11 06:52:26;;;;;;;0.15;0.15;;;;;;;14.40;70.61;97592.06;5052620;28;20408;-73
2023/10/11 06:55:14;;;;;;;0.50;0.50;;;;;;;14.46;70.27;97587.66;5040649;28;20041;-74
2023/10/11 06:57:45;;;;;;;0.45;0.45;;;;;;;14.55;70.28;97589.84;5041129;28;20043;-73
2023/10/11 07:00:22;;;;;;;0.40;0.40;;;;;;;14.65;69.72;97594.72;5037777;28;20045;-73
2023/10/11 07:02:52;;;;;;;0.50;0.50;;;;;;;14.78;69.49;97599.97;5046142;28;20041;-73
2023/10/11 07:05:21;;;;;;;0.38;0.38;;;;;;;14.91;68.71;97597.16;5053064;28;20068;-74
2023/10/11 07:07:49;;;;;;;0.38;0.38;;;;;;;15.09;68.08;97607.13;5049850;28;20037;-73
2023/10/11 07:10:32;;;;;;;0.52;0.52;;;;;;;15.24;67.06;97599.50;5043980;28;20120;-73
2023/10/11 07:13:09;;;;;;;0.45;0.45;;;;;;;15.38;66.88;97610.94;5042530;28;20094;-74
2023/10/11 07:15:41;;;;;;;0.50;0.50;;;;;;;15.48;66.90;97619.28;5041818;28;20048;-73
2023/10/11 07:18:11;;;;;;;0.52;0.52;;;;;;;15.57;66.28;97609.94;5041766;28;20498;-74
2023/10/11 07:20:58;;;;;;;0.30;0.30;;;;;;;15.66;66.21;97608.56;5053835;28;20041;-73
2023/10/11 07:23:35;;;;;;;0.47;0.47;;;;;;;15.72;66.07;97612.19;5043955;28;20133;-73
2023/10/11 07:26:25;;;;;;;0.55;0.55;;;;;;;15.78;65.76;97612.09;5041954;28;20537;-74
2023/10/11 07:28:52;;;;;;;0.40;0.40;;;;;;;15.81;66.14;97605.47;5034988;28;20037;-74
2023/10/11 07:31:21;;;;;;;0.60;0.60;;;;;;;15.87;65.85;97619.91;5051136;28;20073;-74
2023/10/11 07:33:55;;;;;;;0.32;0.32;;;;;;;15.90;66.21;97614.84;5049690;28;20041;-73
2023/10/11 07:36:23;;;;;;;0.60;0.60;;;;;;;15.91;66.04;97610.28;5043001;28;20073;-73
2023/10/11 07:38:55;;;;;;;0.40;0.40;;;;;;;15.94;66.30;97615.22;5041299;28;20037;-74
2023/10/11 07:41:28;;;;;;;0.40;0.40;;;;;;;16.01;66.29;97611.38;5047838;28;20045;-74
2023/10/11 07:43:56;;;;;;;0.50;0.50;;;;;;;16.03;66.45;97611.16;5047072;28;20046;-74
2023/10/11 07:46:24;;;;;;;0.50;0.50;;;;;;;16.05;66.09;97617.16;5042901;28;20131;-74
2023/10/11 07:49:01;;;;;;;0.30;0.30;;;;;;;16.04;66.49;97621.72;5041861;28;20030;-74
2023/10/11 07:51:29;;;;;;;0.77;0.77;;;;;;;16.09;66.35;97629.13;5041707;28;20050;-74
2023/10/11 07:53:58;;;;;;;0.57;0.43;;;;;;;16.18;66.40;97621.53;5041673;28;20037;-75
2023/10/11 07:56:27;;;;;;;0.22;0.22;;;;;;;16.29;66.07;97623.44;5052007;28;20174;-74
2023/10/11 07:58:56;;;;;;;0.25;0.25;;;;;;;16.35;65.38;97617.13;5046835;28;20041;-74
2023/10/11 08:01:30;;;;;;;0.40;0.40;;;;;;;16.44;65.09;97611.16;5042546;28;20559;-75
2023/10/11 08:03:58;;;;;;;0.40;0.40;;;;;;;16.70;63.59;97620.75;5041558;28;20129;-76
2023/10/11 08:06:27;;;;;;;0.50;0.50;;;;;;;16.82;63.61;97612.63;5045915;28;20059;-74
2023/10/11 08:08:59;;;;;;;0.40;0.40;;;;;;;17.00;62.42;97615.25;5053394;28;20064;-75
2023/10/11 08:11:36;;;;;;;0.38;0.38;;;;;;;17.16;62.67;97613.69;5046001;28;20049;-75
2023/10/11 08:14:13;;;;;;;0.47;0.47;;;;;;;17.25;61.92;97613.09;5041197;28;20096;-73
2023/10/11 08:16:43;;;;;;;0.30;0.30;;;;;;;17.34;61.47;97615.44;5040303;28;20037;-74
2023/10/11 08:19:13;;;;;;;0.40;0.40;;;;;;;17.44;61.47;97626.47;5050135;28;20516;-74
2023/10/11 08:21:47;;;;;;;0.40;0.40;;;;;;;17.54;60.66;97618.59;5050399;28;20041;-74
2023/10/11 08:24:16;;;;;;;0.50;0.50;;;;;;;17.68;59.54;97619.16;5044501;28;20045;-75
2023/10/11 08:26:46;;;;;;;0.38;0.38;;;;;;;17.75;59.75;97623.38;5041334;28;20049;-74
2023/10/11 08:29:27;;;;;;;0.50;0.50;;;;;;;17.90;58.96;97609.34;5036298;28;20549;-74
2023/10/11 08:31:57;;;;;;;0.47;0.47;;;;;;;18.04;58.14;97609.88;5042837;28;20100;-74
2023/10/11 08:34:26;;;;;;;0.40;0.40;;;;;;;18.13;58.30;97613.81;5043292;28;20041;-72
2023/10/11 08:36:57;;;;;;;0.45;0.45;;;;;;;18.21;57.51;97610.72;5061724;28;20506;-73
2023/10/11 08:39:35;;;;;;;0.45;0.45;;;;;;;18.22;58.22;97606.97;5062155;28;20041;-72
2023/10/11 08:42:10;;;;;;;;;;;;;;;18.23;57.77;97601.31;5052054;28;20045;-74
2023/10/11 08:44:39;;;;;;;0.38;0.38;;;;;;;18.30;57.84;97603.84;5062272;28;20292;-74
2023/10/11 08:47:07;;;;;;;0.38;0.38;;;;;;;18.38;57.82;97605.31;5041517;28;20049;-74
2023/10/11 08:49:41;;;;;;;0.40;0.40;;;;;;;18.51;56.98;97607.72;5048630;28;20049;-74
2023/10/11 08:52:10;;;;;;;0.40;0.40;;;;;;;18.59;56.87;97597.34;5049069;28;20040;-74
2023/10/11 08:54:40;;;;;;;0.32;0.32;;;;;;;18.67;57.31;97598.84;5040789;28;20049;-74
2023/10/11 08:57:13;;;;;;;0.70;0.22;;;;;;;18.79;56.39;97598.75;5040217;28;20042;-74
2023/10/11 08:59:50;;;;;;;0.45;0.45;;;;;;;18.90;56.00;97605.94;5039063;28;20041;-75
2023/10/11 09:02:19;;;;;;;0.38;0.38;;;;;;;19.02;54.55;97602.06;5041320;28;20460;-74
2023/10/11 09:04:57;;;;;;;0.30;0.30;;;;;;;19.14;53.53;97603.88;5051447;28;20045;-74
2023/10/11 09:07:38;;;;;;;0.30;0.30;;;;;;;19.23;52.81;97597.78;5043318;28;20053;-74
2023/10/11 09:10:25;;;;;;;0.22;0.22;;;;;;;19.32;52.47;97590.84;5039695;28;20032;-73
2023/10/11 09:12:57;;;;;;;0.40;0.40;;;;;;;19.38;52.49;97595.28;5039671;28;20130;-73
2023/10/11 09:15:36;;;;;;;0.30;0.30;;;;;;;19.45;51.47;97592.38;5041502;28;20115;-73
2023/10/11 09:18:13;;;;;;;0.28;0.28;;;;;;;19.58;51.75;97596.66;5044954;28;20055;-74
2023/10/11 09:20:41;;;;;;;0.32;0.32;;;;;;;19.63;51.99;97602.94;5040083;28;20029;-73
2023/10/11 09:23:11;;;;;;;0.40;0.40;;;;;;;19.63;51.41;97602.09;5042144;28;20125;-73
2023/10/11 09:25:57;;;;;;;0.30;0.30;;;;;;;19.65;51.41;97599.97;5044244;28;20029;-73
2023/10/11 09:28:27;;;;;;;0.40;0.40;;;;;;;19.66;50.97;97598.91;5041244;28;20044;-74
2023/10/11 09:31:11;;;;;;;0.40;0.40;;;;;;;19.72;51.18;97600.63;5045964;28;20037;-74
2023/10/11 09:33:41;;;;;;;0.22;0.22;;;;;;;19.78;51.43;97594.19;5055225;28;20520;-74
2023/10/11 09:36:12;;;;;;;0.40;0.40;;;;;;;19.81;51.70;97599.09;5043309;28;20068;-74
2023/10/11 09:38:43;;;;;;;0.40;0.40;;;;;;;19.82;51.17;97598.03;5036627;28;20528;-74
2023/10/11 09:41:11;;;;;;;0.30;0.30;;;;;;;19.93;51.10;97596.25;5039794;28;20539;-73
2023/10/11 09:43:44;;;;;;;0.17;0.17;;;;;;;19.98;51.03;97591.69;5036290;28;20449;-73
2023/10/11 09:46:13;;;;;;;0.50;0.50;;;;;;;20.05;51.74;97596.91;5047303;28;20106;-73
2023/10/11 09:48:47;;;;;;;;;;;;;;;20.16;51.50;97594.03;5047326;28;20041;-75
2023/10/11 09:51:16;;;;;;;0.30;0.30;;;;;;;20.23;50.24;97593.03;5046173;28;19928;-73
2023/10/11 09:53:50;;;;;;;0.30;0.30;;;;;;;20.34;50.19;97594.78;5039955;28;20220;-73
2023/10/11 09:56:30;;;;;;;0.40;0.40;;;;;;;20.45;49.91;97608.16;5041461;28;20045;-74
2023/10/11 09:59:08;;;;;;;0.25;0.25;;;;;;;20.55;49.51;97607.47;5042535;28;20044;-73
2023/10/11 10:01:40;;;;;;;0.52;0.52;;;;;;;20.65;50.03;97617.59;5051407;28;20061;-74
2023/10/11 10:04:09;;;;;;;0.65;0.65;;;;;;;20.70;48.80;97614.91;5041098;28;20045;-73
2023/10/11 10:06:37;;;;;;;0.32;0.32;;;;;;;20.79;48.18;97600.59;5033743;28;20061;-74
2023/10/11 10:09:22;;;;;;;0.20;0.20;;;;;;;20.88;47.96;97603.66;5039479;28;20500;-74
2023/10/11 10:12:20;;;;;;;0.40;0.40;;;;;;;21.02;48.06;97593.16;5039847;28;20441;-75
2023/10/11 10:15:02;;;;;;;0.50;0.50;;;;;;;21.10;47.58;97600.81;5049202;28;20076;-75
2023/10/11 10:17:31;;;;;;;0.20;0.20;;;;;;;21.12;47.61;97602.19;5042582;28;20057;-75
2023/10/11 10:20:42;;;;;;;0.20;0.20;;;;;;;21.18;47.96;97598.44;5042936;28;20064;-75
2023/10/11 10:23:29;;;;;;;0.30;0.30;;;;;;;21.24;47.44;97589.28;5039245;28;20120;-74
2023/10/11 10:26:40;;;;;;;0.30;0.30;;;;;;;21.35;47.05;97594.75;5047623;28;20050;-73
2023/10/11 10:29:11;;;;;;;0.25;0.25;;;;;;;21.40;46.54;97587.44;5060947;28;20068;-72
2023/10/11 10:32:06;;;;;;;0.22;0.22;;;;;;;21.46;45.66;97589.13;5060182;28;20065;-73
2023/10/11 10:34:34;;;;;;;0.40;0.40;;;;;;;21.45;45.65;97590.19;5043841;28;20069;-73
2023/10/11 10:37:07;;;;;;;0.30;0.30;;;;;;;21.50;45.52;97583.97;5047314;28;20041;-73
2023/10/11 10:39:46;;;;;;;0.35;0.30;;;;;;;21.54;45.87;97590.50;5039541;28;20038;-74
2023/10/11 10:42:17;;;;;;;0.40;0.40;;;;;;;21.55;45.08;97586.72;5040162;28;20065;-74
2023/10/11 10:44:52;;;;;;;0.20;0.20;;;;;;;21.60;45.31;97584.00;5049761;28;20037;-74
2023/10/11 10:47:26;;;;;;;0.28;0.25;;;;;;;21.73;45.42;97582.69;5050190;28;20037;-74
2023/10/11 10:49:55;;;;;;;0.30;0.30;;;;;;;21.81;45.10;97579.47;5040256;28;20065;-74
2023/10/11 10:52:26;;;;;;;0.25;0.25;;;;;;;21.92;45.07;97570.25;5052445;28;20045;-74
2023/10/11 10:55:01;;;;;;;0.30;0.30;;;;;;;22.02;44.77;97564.88;5046760;28;20089;-74
2023/10/11 10:57:36;;;;;;;0.52;0.52;;;;;;;22.11;44.17;97563.28;5062152;28;20049;-73
2023/10/11 11:00:07;;;;;;;0.35;0.35;;;;;;;22.21;43.92;97549.69;5052932;28;20041;-73
2023/10/11 11:02:36;;;;;;;0.40;0.40;;;;;;;22.28;43.97;97547.53;5050496;28;20101;-74
2023/10/11 11:05:13;;;;;;;0.30;0.30;;;;;;;22.37;42.99;97547.78;5053824;28;20045;-74
2023/10/11 11:07:47;;;;;;;0.10;0.10;;;;;;;22.48;42.50;97529.56;5055308;28;20404;-74
2023/10/11 11:10:20;;;;;;;0.38;0.38;;;;;;;22.62;42.17;97539.66;5054002;28;20033;-73
2023/10/11 11:12:47;;;;;;;0.30;0.30;;;;;;;22.81;42.09;97534.47;5059859;28;20077;-74
2023/10/11 11:15:20;;;;;;;0.22;0.22;;;;;;;22.92;41.82;97530.66;5055368;28;20057;-75
2023/10/11 11:17:50;;;;;;;0.30;0.30;;;;;;;23.10;41.67;97539.31;5044018;28;20053;-74
2023/10/11 11:20:32;;;;;;;0.30;0.30;;;;;;;23.20;40.18;97531.94;5057206;28;20420;-74
2023/10/11 11:22:59;;;;;;;0.20;0.10;;;;;;;23.30;40.32;97533.81;5049986;28;20439;-74
2023/10/11 11:25:30;;;;;;;0.30;0.30;;;;;;;23.49;40.73;97534.81;5057604;28;20083;-74
2023/10/11 11:28:15;;;;;;;0.40;0.40;;;;;;;23.50;39.37;97538.41;5052905;28;20049;-74
2023/10/11 11:31:09;;;;;;;0.35;0.30;;;;;;;23.46;40.47;97529.94;5061961;28;20056;-73
2023/10/11 11:33:47;;;;;;;0.20;0.20;;;;;;;23.27;39.51;97532.44;5044135;28;20227;-74
2023/10/11 11:36:30;;;;;;;0.20;0.20;;;;;;;23.25;39.84;97537.38;5048591;28;20116;-73
2023/10/11 11:39:16;;;;;;;0.32;0.32;;;;;;;23.36;40.38;97525.31;5055065;28;20040;-73
2023/10/11 11:41:48;;;;;;;0.30;0.30;;;;;;;23.48;39.39;97533.19;5044776;28;20042;-73
2023/10/11 11:44:20;;;;;;;0.20;0.20;;;;;;;23.43;39.35;97525.88;5047144;28;20052;-74
2023/10/11 11:46:49;;;;;;;0.20;0.20;;;;;;;23.68;39.42;97522.22;5045803;28;20052;-74
2023/10/11 11:49:20;;;;;;;0.40;0.40;;;;;;;23.82;39.03;97519.69;5045040;28;20036;-73
2023/10/11 11:51:50;;;;;;;0.20;0.20;;;;;;;23.90;39.54;97519.09;5047712;28;20111;-73
2023/10/11 11:54:21;;;;;;;0.20;0.20;;;;;;;24.15;38.25;97518.94;5055633;28;20079;-75
2023/10/11 11:56:54;;;;;;;0.20;0.20;;;;;;;24.28;37.95;97512.06;5053492;28;20064;-74
2023/10/11 11:59:21;;;;;;;0.22;0.22;;;;;;;24.28;37.93;97513.97;5045748;28;20140;-76
2023/10/11 12:01:51;;;;;;;0.20;0.20;;;;;;;24.23;37.83;97508.53;5044436;28;20037;-74
2023/10/11 12:04:20;;;;;;;0.30;0.30;;;;;;;24.28;38.39;97492.16;5044551;28;20504;-73
2023/10/11 12:06:49;;;;;;;0.28;0.28;;;;;;;24.43;37.93;97495.56;5050759;28;20045;-74
2023/10/11 12:09:21;;;;;;;0.20;0.20;;;;;;;24.38;38.65;97481.97;5053530;28;20120;-78
2023/10/11 12:11:53;;;;;;;0.40;0.40;;;;;;;24.49;37.96;97478.06;5046757;28;20061;-74
2023/10/11 12:14:22;;;;;;;0.30;0.30;;;;;;;24.37;38.67;97474.06;5044331;28;20042;-75
2023/10/11 12:16:50;;;;;;;0.38;0.38;;;;;;;24.61;38.36;97485.84;5036126;28;20476;-75
2023/10/11 12:19:18;;;;;;;0.20;0.20;;;;;;;24.74;38.38;97468.78;5047850;28;20048;-74
2023/10/11 12:21:47;;;;;;;0.20;0.20;;;;;;;24.86;38.73;97479.31;5055515;28;20060;-74
2023/10/11 12:24:15;;;;;;;0.10;0.10;;;;;;;24.61;38.25;97477.63;5056266;28;20437;-74